createdAt,value
2023-03-08T00:01:22.590Z,49.91
2023-03-08T00:03:58.114Z,49.55
2023-03-08T00:06:27.574Z,49.93
2023-03-08T00:09:00.161Z,49.46
2023-03-08T00:11:29.189Z,50.00
2023-03-08T00:13:58.089Z,50.20
2023-03-08T00:16:26.027Z,50.09
2023-03-08T00:18:54.471Z,49.96
2023-03-08T00:21:22.567Z,50.04
2023-03-08T00:23:53.926Z,50.57
2023-03-08T00:26:22.393Z,50.58
2023-03-08T00:28:50.562Z,50.47
2023-03-08T00:31:18.809Z,50.05
2023-03-08T00:33:46.824Z,50.98
2023-03-08T00:36:17.431Z,50.20
2023-03-08T00:38:46.801Z,50.35
2023-03-08T00:41:15.504Z,50.17
2023-03-08T00:43:43.502Z,50.09
2023-03-08T00:46:12.364Z,49.39
2023-03-08T00:48:40.819Z,50.56
2023-03-08T00:51:14.579Z,50.22
2023-03-08T00:53:43.222Z,50.69
2023-03-08T00:56:11.679Z,50.86
2023-03-08T00:58:41.661Z,51.75
2023-03-08T01:01:18.090Z,51.94
2023-03-08T01:03:48.553Z,52.85
2023-03-08T01:06:17.027Z,52.78
2023-03-08T01:08:45.184Z,52.81
2023-03-08T01:11:36.694Z,52.98
2023-03-08T01:14:08.155Z,53.35
2023-03-08T01:16:37.155Z,52.79
2023-03-08T01:19:05.600Z,53.94
2023-03-08T01:21:33.501Z,53.51
2023-03-08T01:24:01.473Z,54.29
2023-03-08T01:26:29.613Z,54.33
2023-03-08T01:28:58.412Z,53.82
2023-03-08T01:31:29.692Z,53.66
2023-03-08T01:33:58.975Z,55.30
2023-03-08T01:36:28.217Z,54.75
2023-03-08T01:38:56.466Z,54.75
2023-03-08T01:41:30.630Z,55.16
2023-03-08T01:43:58.637Z,56.88
2023-03-08T01:46:35.362Z,56.41
2023-03-08T01:49:24.256Z,57.39
2023-03-08T01:52:03.889Z,57.04
2023-03-08T01:54:39.177Z,57.01
2023-03-08T01:57:14.094Z,57.54
2023-03-08T01:59:43.061Z,58.03
2023-03-08T02:02:11.260Z,58.02
2023-03-08T02:04:40.826Z,57.74
2023-03-08T02:07:12.252Z,57.71
2023-03-08T02:09:41.459Z,58.23
2023-03-08T02:12:13.140Z,58.56
2023-03-08T02:14:43.183Z,58.76
2023-03-08T02:17:12.034Z,58.56
2023-03-08T02:19:46.062Z,59.07
2023-03-08T02:22:16.140Z,58.61
2023-03-08T02:24:44.328Z,58.89
2023-03-08T02:27:24.159Z,60.67
2023-03-08T02:29:52.757Z,59.54
2023-03-08T02:32:20.699Z,59.85
2023-03-08T02:34:49.667Z,59.67
2023-03-08T02:37:17.871Z,59.90
2023-03-08T02:39:48.702Z,60.03
2023-03-08T02:42:16.619Z,60.78
2023-03-08T02:44:44.589Z,60.28
2023-03-08T02:47:12.545Z,59.75
2023-03-08T02:49:40.439Z,60.12
2023-03-08T02:52:10.054Z,59.84
2023-03-08T02:54:38.156Z,59.96
2023-03-08T02:57:06.005Z,61.25
2023-03-08T02:59:35.889Z,60.81
2023-03-08T03:02:04.392Z,60.74
2023-03-08T03:04:33.586Z,61.08
2023-03-08T03:07:01.706Z,60.66
2023-03-08T03:09:31.721Z,60.57
2023-03-08T03:11:59.662Z,61.48
2023-03-08T03:14:28.475Z,60.96
2023-03-08T03:16:59.201Z,60.50
2023-03-08T03:19:27.386Z,60.03
2023-03-08T03:21:55.619Z,60.18
2023-03-08T03:24:23.565Z,60.25
2023-03-08T03:26:55.467Z,60.40
2023-03-08T03:29:25.882Z,60.10
2023-03-08T03:32:01.629Z,60.15
2023-03-08T03:34:29.943Z,60.21
2023-03-08T03:36:58.021Z,60.80
2023-03-08T03:39:25.968Z,60.42
2023-03-08T03:41:54.405Z,60.60
2023-03-08T03:44:22.371Z,60.43
2023-03-08T03:46:50.383Z,60.75
2023-03-08T03:49:23.662Z,60.33
2023-03-08T03:51:51.542Z,60.73
2023-03-08T03:54:24.623Z,60.20
2023-03-08T03:56:53.256Z,60.96
2023-03-08T03:59:26.662Z,60.40
2023-03-08T04:01:55.115Z,60.55
2023-03-08T04:04:27.755Z,60.43
2023-03-08T04:06:56.235Z,61.11
2023-03-08T04:09:28.220Z,61.04
2023-03-08T04:12:08.101Z,60.66
2023-03-08T04:14:37.516Z,60.47
2023-03-08T04:17:06.306Z,61.41
2023-03-08T04:19:41.056Z,61.33
2023-03-08T04:22:09.924Z,61.80
2023-03-08T04:24:45.020Z,61.43
2023-03-08T04:27:17.943Z,61.36
2023-03-08T04:29:46.024Z,61.38
2023-03-08T04:32:14.450Z,60.84
2023-03-08T04:34:47.493Z,61.39
2023-03-08T04:37:18.307Z,60.76
2023-03-08T04:39:50.143Z,60.71
2023-03-08T04:42:18.701Z,60.58
2023-03-08T04:44:47.808Z,60.75
2023-03-08T04:47:19.967Z,60.78
2023-03-08T04:49:48.028Z,60.67
2023-03-08T04:52:16.065Z,60.51
2023-03-08T04:54:45.070Z,60.87
2023-03-08T04:57:23.217Z,60.48
2023-03-08T04:59:54.103Z,60.65
2023-03-08T05:02:24.240Z,60.73
2023-03-08T05:04:52.316Z,60.84
2023-03-08T05:07:21.190Z,61.20
2023-03-08T05:09:50.857Z,60.87
2023-03-08T05:12:18.956Z,60.85
2023-03-08T05:14:57.243Z,61.29
2023-03-08T05:17:26.878Z,61.60
2023-03-08T05:19:54.948Z,61.47
2023-03-08T05:22:28.398Z,61.04
2023-03-08T05:24:58.696Z,61.56
2023-03-08T05:27:27.751Z,61.60
2023-03-08T05:29:56.433Z,61.53
2023-03-08T05:32:24.424Z,61.14
2023-03-08T05:34:53.696Z,61.43
2023-03-08T05:37:32.461Z,61.18
2023-03-08T05:40:06.357Z,61.43
2023-03-08T05:42:36.913Z,61.44
2023-03-08T05:45:05.164Z,62.17
2023-03-08T05:47:37.159Z,62.71
2023-03-08T05:50:09.556Z,61.98
2023-03-08T05:52:42.581Z,62.09
2023-03-08T05:55:13.522Z,62.13
2023-03-08T05:57:42.562Z,62.46
2023-03-08T06:00:11.525Z,63.03
2023-03-08T06:02:50.782Z,63.24
2023-03-08T06:05:20.701Z,62.83
2023-03-08T06:07:50.311Z,62.68
2023-03-08T06:10:19.361Z,62.60
2023-03-08T06:12:47.407Z,62.26
2023-03-08T06:15:18.546Z,62.65
2023-03-08T06:17:46.455Z,62.13
2023-03-08T06:20:18.070Z,62.50
2023-03-08T06:22:49.251Z,62.67
2023-03-08T06:25:18.015Z,63.05
2023-03-08T06:27:46.187Z,62.71
2023-03-08T06:30:25.035Z,61.90
2023-03-08T06:32:53.810Z,62.63
2023-03-08T06:35:21.678Z,62.22
2023-03-08T06:37:56.179Z,62.10
2023-03-08T06:40:24.105Z,62.43
2023-03-08T06:42:51.986Z,62.08
2023-03-08T06:45:19.899Z,62.25
2023-03-08T06:47:47.735Z,62.39
2023-03-08T06:50:15.592Z,62.92
2023-03-08T06:52:47.855Z,62.53
2023-03-08T06:55:18.882Z,61.98
2023-03-08T06:57:47.158Z,62.52
2023-03-08T07:00:15.697Z,62.54
2023-03-08T07:02:43.744Z,62.80
2023-03-08T07:05:11.616Z,62.71
2023-03-08T07:07:40.127Z,62.01
2023-03-08T07:10:10.945Z,62.16
2023-03-08T07:12:40.398Z,61.90
2023-03-08T07:15:08.828Z,61.69
2023-03-08T07:17:36.990Z,60.84
2023-03-08T07:20:05.733Z,60.95
2023-03-08T07:22:33.720Z,60.62
2023-03-08T07:25:01.655Z,60.01
2023-03-08T07:27:29.594Z,60.25
2023-03-08T07:29:57.753Z,59.73
2023-03-08T07:32:28.899Z,59.02
2023-03-08T07:34:57.613Z,58.28
2023-03-08T07:37:25.554Z,57.15
2023-03-08T07:39:53.496Z,57.55
2023-03-08T07:42:21.451Z,57.09
2023-03-08T07:44:55.453Z,57.05
2023-03-08T07:47:23.419Z,57.46
2023-03-08T07:49:51.326Z,57.65
2023-03-08T07:52:19.186Z,56.65
2023-03-08T07:54:47.144Z,56.52
2023-03-08T07:57:16.058Z,56.23
2023-03-08T07:59:44.131Z,56.18
2023-03-08T08:02:13.836Z,55.63
2023-03-08T08:04:42.041Z,55.87
2023-03-08T08:07:15.606Z,55.34
2023-03-08T08:09:43.692Z,54.70
2023-03-08T08:12:11.811Z,54.40
2023-03-08T08:14:39.723Z,54.68
2023-03-08T08:17:11.903Z,54.76
2023-03-08T08:19:39.881Z,53.97
2023-03-08T08:22:07.706Z,53.06
2023-03-08T08:24:35.886Z,54.19
2023-03-08T08:27:04.114Z,52.93
2023-03-08T08:29:31.983Z,52.76
2023-03-08T08:31:59.894Z,51.42
2023-03-08T08:34:28.077Z,51.27
2023-03-08T08:36:56.656Z,51.20
2023-03-08T08:39:24.836Z,51.78
2023-03-08T08:41:52.704Z,51.78
2023-03-08T08:44:20.591Z,51.54
2023-03-08T08:46:48.496Z,50.90
2023-03-08T08:49:16.475Z,51.09
2023-03-08T08:51:44.440Z,50.83
2023-03-08T08:54:12.335Z,50.09
2023-03-08T08:56:42.968Z,50.43
2023-03-08T08:59:12.467Z,50.95
2023-03-08T09:01:47.090Z,50.89
2023-03-08T09:04:16.835Z,49.97
2023-03-08T09:06:44.898Z,49.43
2023-03-08T09:09:12.837Z,49.25
2023-03-08T09:11:53.713Z,49.16
2023-03-08T09:14:22.929Z,48.52
2023-03-08T09:16:50.915Z,47.35
2023-03-08T09:19:18.944Z,47.44
2023-03-08T09:21:46.858Z,44.93
2023-03-08T09:24:14.840Z,45.16
2023-03-08T09:26:42.655Z,45.43
2023-03-08T09:29:11.286Z,45.08
2023-03-08T09:31:39.846Z,45.70
2023-03-08T09:34:10.395Z,44.69
2023-03-08T09:36:41.667Z,44.40
2023-03-08T09:39:11.993Z,45.37
2023-03-08T09:41:56.117Z,44.38
2023-03-08T09:44:55.716Z,43.32
2023-03-08T09:47:32.934Z,44.05
2023-03-08T09:50:09.251Z,44.08
2023-03-08T09:52:48.598Z,43.67
2023-03-08T09:55:28.381Z,44.09
2023-03-08T09:58:21.655Z,43.18
2023-03-08T10:00:49.702Z,43.26
2023-03-08T10:03:33.463Z,42.46
2023-03-08T10:06:27.025Z,42.76
2023-03-08T10:09:07.226Z,42.59
2023-03-08T10:11:54.545Z,42.75
2023-03-08T10:14:31.414Z,42.87
2023-03-08T10:17:05.363Z,42.84
2023-03-08T10:19:42.428Z,43.64
2023-03-08T10:22:42.529Z,42.52
2023-03-08T10:25:28.970Z,42.95
2023-03-08T10:27:59.064Z,42.97
2023-03-08T10:30:36.432Z,42.67
2023-03-08T10:33:08.677Z,42.42
2023-03-08T10:35:53.790Z,42.84
2023-03-08T10:38:22.705Z,42.17
2023-03-08T10:40:59.614Z,42.75
2023-03-08T10:43:35.078Z,42.37
2023-03-08T10:46:12.662Z,41.58
2023-03-08T10:48:40.633Z,41.26
2023-03-08T10:51:29.366Z,41.16
2023-03-08T10:54:00.003Z,40.98
2023-03-08T10:56:44.955Z,41.75
2023-03-08T10:59:33.469Z,42.26
2023-03-08T11:02:13.523Z,41.69
2023-03-08T11:05:01.690Z,41.07
2023-03-08T11:07:32.839Z,42.59
2023-03-08T11:10:12.548Z,42.42
2023-03-08T11:12:40.579Z,42.54
2023-03-08T11:15:19.589Z,40.53
2023-03-08T11:18:31.778Z,41.42
2023-03-08T11:21:10.414Z,41.31
2023-03-08T11:23:45.907Z,41.54
2023-03-08T11:26:28.797Z,41.06
2023-03-08T11:29:10.489Z,39.77
2023-03-08T11:31:57.039Z,41.04
2023-03-08T11:34:44.028Z,40.39
2023-03-08T11:37:36.848Z,40.58
2023-03-08T11:40:46.726Z,41.50
2023-03-08T11:43:23.551Z,42.31
2023-03-08T11:46:01.104Z,40.74
2023-03-08T11:48:37.953Z,40.39
2023-03-08T11:51:15.269Z,40.86
2023-03-08T11:53:58.726Z,39.65
2023-03-08T11:56:54.433Z,40.20
2023-03-08T12:00:00.918Z,40.29
2023-03-08T12:02:31.126Z,40.52
2023-03-08T12:05:02.178Z,40.88
2023-03-08T12:07:38.684Z,40.16
2023-03-08T12:10:09.657Z,40.23
2023-03-08T12:13:05.071Z,39.93
2023-03-08T12:15:38.006Z,40.20
2023-03-08T12:18:38.126Z,39.72
2023-03-08T12:21:14.698Z,40.74
2023-03-08T12:23:48.296Z,40.68
2023-03-08T12:26:54.269Z,40.72
2023-03-08T12:29:50.136Z,40.53
2023-03-08T12:32:20.072Z,40.92
2023-03-08T12:34:48.368Z,41.61
2023-03-08T12:37:22.309Z,40.61
2023-03-08T12:40:26.546Z,41.35
2023-03-08T12:43:26.859Z,41.00
2023-03-08T12:46:05.052Z,41.21
2023-03-08T12:48:44.337Z,40.99
2023-03-08T12:51:12.242Z,41.10
2023-03-08T12:53:41.223Z,41.83
2023-03-08T12:56:12.234Z,41.71
2023-03-08T12:58:48.060Z,42.52
2023-03-08T13:01:40.519Z,42.29
2023-03-08T13:04:40.322Z,42.71
2023-03-08T13:07:19.035Z,41.84
2023-03-08T13:09:55.150Z,42.47
2023-03-08T13:12:32.341Z,43.73
2023-03-08T13:15:13.634Z,42.65
2023-03-08T13:17:48.853Z,42.30
2023-03-08T13:20:29.035Z,42.13
2023-03-08T13:23:05.291Z,42.74
2023-03-08T13:25:52.343Z,42.24
2023-03-08T13:28:22.859Z,42.78
2023-03-08T13:30:57.250Z,43.92
2023-03-08T13:33:30.066Z,43.12
2023-03-08T13:36:06.273Z,43.01
2023-03-08T13:38:36.569Z,42.30
2023-03-08T13:41:04.796Z,42.73
2023-03-08T13:43:34.968Z,44.16
2023-03-08T13:46:06.353Z,43.61
2023-03-08T13:48:35.945Z,43.37
2023-03-08T13:51:04.238Z,42.66
2023-03-08T13:53:35.545Z,43.04
2023-03-08T13:56:06.006Z,42.98
2023-03-08T13:58:40.464Z,42.66
2023-03-08T14:01:18.784Z,42.55
2023-03-08T14:03:47.472Z,42.73
2023-03-08T14:06:29.837Z,42.63
2023-03-08T14:09:04.708Z,42.61
2023-03-08T14:11:35.329Z,42.11
2023-03-08T14:14:09.288Z,41.75
2023-03-08T14:16:41.881Z,42.66
2023-03-08T14:19:22.038Z,42.72
2023-03-08T14:21:54.552Z,43.34
2023-03-08T14:24:26.121Z,43.99
2023-03-08T14:27:25.134Z,43.58
2023-03-08T14:30:02.775Z,43.86
2023-03-08T14:32:35.806Z,44.99
2023-03-08T14:35:07.848Z,43.97
2023-03-08T14:37:35.772Z,44.06
2023-03-08T14:40:31.548Z,44.83
2023-03-08T14:43:02.998Z,44.14
2023-03-08T14:45:34.683Z,43.52
2023-03-08T14:48:28.397Z,44.37
2023-03-08T14:51:18.856Z,44.68
2023-03-08T14:54:05.886Z,44.65
2023-03-08T14:56:34.861Z,44.69
2023-03-08T14:59:05.433Z,44.15
2023-03-08T15:01:36.206Z,44.53
2023-03-08T15:04:06.982Z,44.26
2023-03-08T15:06:36.957Z,44.19
2023-03-08T15:09:07.977Z,45.09
2023-03-08T15:11:36.068Z,45.13
2023-03-08T15:14:04.396Z,45.00
2023-03-08T15:16:32.357Z,45.38
2023-03-08T15:19:00.467Z,44.76
2023-03-08T15:21:29.459Z,45.20
2023-03-08T15:23:58.244Z,45.33
2023-03-08T15:26:32.271Z,45.21
2023-03-08T15:29:03.962Z,45.40
2023-03-08T15:31:32.183Z,44.99
2023-03-08T15:34:01.559Z,44.72
2023-03-08T15:36:32.573Z,44.79
2023-03-08T15:39:01.394Z,45.43
2023-03-08T15:41:29.467Z,45.14
2023-03-08T15:43:57.372Z,46.22
2023-03-08T15:46:25.258Z,45.24
2023-03-08T15:48:53.174Z,45.12
2023-03-08T15:51:22.871Z,45.74
2023-03-08T15:53:50.793Z,45.71
2023-03-08T15:56:18.709Z,45.58
2023-03-08T15:58:46.565Z,45.94
2023-03-08T16:01:14.673Z,47.31
2023-03-08T16:03:42.688Z,47.25
2023-03-08T16:06:12.273Z,47.69
2023-03-08T16:08:40.985Z,46.70
2023-03-08T16:11:10.889Z,47.21
2023-03-08T16:13:38.967Z,47.65
2023-03-08T16:16:07.570Z,47.12
2023-03-08T16:18:37.130Z,47.89
2023-03-08T16:21:09.156Z,48.32
2023-03-08T16:23:39.198Z,48.43
2023-03-08T16:26:15.872Z,48.03
2023-03-08T16:28:46.516Z,48.21
2023-03-08T16:31:16.563Z,47.88
2023-03-08T16:33:44.603Z,47.78
2023-03-08T16:36:13.126Z,47.57
2023-03-08T16:38:41.594Z,48.43
2023-03-08T16:41:13.215Z,48.62
2023-03-08T16:43:47.690Z,47.55
2023-03-08T16:46:21.454Z,47.81
2023-03-08T16:48:53.441Z,48.68
2023-03-08T16:51:25.058Z,48.06
2023-03-08T16:53:54.099Z,48.46
2023-03-08T16:56:24.835Z,48.26
2023-03-08T16:58:54.362Z,48.93
2023-03-08T17:01:23.443Z,49.15
2023-03-08T17:03:51.986Z,49.08
2023-03-08T17:06:22.416Z,48.62
2023-03-08T17:08:50.590Z,49.05
2023-03-08T17:11:24.498Z,48.35
2023-03-08T17:13:55.489Z,48.73
2023-03-08T17:16:26.996Z,48.77
2023-03-08T17:18:56.614Z,49.02
2023-03-08T17:21:25.170Z,48.20
2023-03-08T17:23:53.675Z,49.16
2023-03-08T17:26:23.152Z,49.45
2023-03-08T17:28:52.987Z,48.77
2023-03-08T17:31:23.081Z,48.30
2023-03-08T17:33:51.326Z,48.18
2023-03-08T17:36:20.234Z,48.02
2023-03-08T17:38:48.341Z,48.14
2023-03-08T17:41:16.619Z,48.30
2023-03-08T17:43:44.712Z,48.27
2023-03-08T17:46:18.174Z,48.43
2023-03-08T17:48:46.698Z,48.02
2023-03-08T17:51:17.340Z,48.07
2023-03-08T17:53:45.737Z,48.94
2023-03-08T17:56:21.054Z,48.58
2023-03-08T17:58:49.624Z,48.18
2023-03-08T18:01:20.753Z,48.85
2023-03-08T18:03:48.895Z,49.26
2023-03-08T18:06:35.000Z,49.72
2023-03-08T18:09:06.724Z,49.19
2023-03-08T18:11:37.967Z,49.84
2023-03-08T18:14:07.803Z,50.02
2023-03-08T18:16:35.856Z,49.35
2023-03-08T18:19:05.474Z,49.71
2023-03-08T18:21:36.008Z,50.13
2023-03-08T18:24:05.183Z,50.08
2023-03-08T18:26:33.458Z,49.86
2023-03-08T18:29:01.566Z,50.06
2023-03-08T18:31:32.236Z,49.94
2023-03-08T18:34:00.167Z,50.29
2023-03-08T18:36:28.391Z,50.58
2023-03-08T18:38:57.660Z,49.94
2023-03-08T18:41:27.930Z,49.72
2023-03-08T18:43:58.383Z,50.00
2023-03-08T18:46:30.098Z,50.12
2023-03-08T18:49:11.300Z,49.92
2023-03-08T18:51:41.568Z,50.76
2023-03-08T18:54:15.967Z,50.34
2023-03-08T18:56:44.757Z,51.63
2023-03-08T18:59:14.046Z,51.87
2023-03-08T19:01:42.000Z,50.89
2023-03-08T19:04:10.568Z,51.74
2023-03-08T19:06:38.900Z,51.64
2023-03-08T19:09:15.846Z,51.57
2023-03-08T19:11:44.786Z,52.23
2023-03-08T19:14:13.118Z,52.79
2023-03-08T19:16:41.185Z,52.80
2023-03-08T19:19:12.176Z,52.85
2023-03-08T19:21:42.744Z,52.97
2023-03-08T19:24:15.739Z,53.54
2023-03-08T19:26:47.356Z,52.59
2023-03-08T19:29:23.681Z,52.13
2023-03-08T19:32:03.381Z,52.84
2023-03-08T19:34:34.863Z,53.77
2023-03-08T19:37:05.196Z,53.54
2023-03-08T19:39:36.813Z,53.10
2023-03-08T19:42:08.177Z,53.69
2023-03-08T19:44:36.601Z,53.88
2023-03-08T19:47:05.091Z,54.25
2023-03-08T19:49:36.281Z,56.75
2023-03-08T19:52:06.032Z,59.08
2023-03-08T19:54:34.535Z,61.14
2023-03-08T19:57:02.734Z,62.76
2023-03-08T19:59:31.013Z,65.07
2023-03-08T20:01:58.994Z,65.69
2023-03-08T20:04:27.061Z,67.12
2023-03-08T20:06:59.558Z,68.06
2023-03-08T20:09:27.737Z,70.41
2023-03-08T20:11:58.815Z,72.02
2023-03-08T20:14:27.843Z,69.94
2023-03-08T20:16:56.655Z,71.00
2023-03-08T20:19:24.850Z,71.83
2023-03-08T20:21:53.025Z,73.41
2023-03-08T20:24:23.253Z,73.75
2023-03-08T20:26:51.231Z,74.49
2023-03-08T20:29:19.398Z,74.45
2023-03-08T20:31:48.241Z,74.21
2023-03-08T20:34:17.434Z,75.15
2023-03-08T20:36:45.383Z,76.04
2023-03-08T20:39:13.409Z,77.83
2023-03-08T20:41:41.315Z,77.75
2023-03-08T20:44:11.039Z,76.62
2023-03-08T20:46:39.062Z,76.36
2023-03-08T20:49:06.950Z,76.97
2023-03-08T20:51:36.372Z,76.27
2023-03-08T20:54:06.126Z,76.01
2023-03-08T20:56:34.290Z,75.49
2023-03-08T20:59:02.482Z,75.24
2023-03-08T21:01:32.399Z,75.52
2023-03-08T21:04:01.035Z,76.47
2023-03-08T21:06:30.895Z,77.21
2023-03-08T21:08:59.822Z,76.47
2023-03-08T21:11:28.821Z,77.05
2023-03-08T21:13:57.022Z,76.81
2023-03-08T21:16:27.424Z,76.93
2023-03-08T21:18:57.607Z,77.05
2023-03-08T21:21:35.507Z,77.31
2023-03-08T21:24:11.338Z,78.42
2023-03-08T21:26:39.981Z,78.95
2023-03-08T21:29:12.209Z,79.15
2023-03-08T21:31:43.336Z,79.14
2023-03-08T21:34:12.825Z,79.44
2023-03-08T21:36:40.950Z,79.85
2023-03-08T21:39:10.038Z,79.41
2023-03-08T21:41:40.117Z,79.20
2023-03-08T21:44:12.594Z,79.87
2023-03-08T21:46:41.653Z,79.17
2023-03-08T21:49:21.732Z,79.66
2023-03-08T21:51:50.286Z,79.45
2023-03-08T21:54:18.741Z,79.41
2023-03-08T21:56:47.314Z,79.74
2023-03-08T21:59:16.745Z,79.80
2023-03-08T22:01:50.172Z,79.51
2023-03-08T22:04:18.194Z,79.46
2023-03-08T22:06:46.616Z,79.94
2023-03-08T22:09:14.595Z,80.08
2023-03-08T22:11:42.464Z,80.03
2023-03-08T22:14:10.823Z,80.53
2023-03-08T22:16:41.622Z,80.55
2023-03-08T22:19:10.174Z,81.12
2023-03-08T22:21:38.135Z,80.95
2023-03-08T22:24:06.178Z,81.03
2023-03-08T22:26:34.216Z,81.02
2023-03-08T22:29:02.065Z,81.29
2023-03-08T22:31:30.806Z,81.91
2023-03-08T22:33:59.054Z,81.73
2023-03-08T22:36:27.083Z,82.08
2023-03-08T22:38:54.945Z,82.08
2023-03-08T22:41:27.347Z,81.70
2023-03-08T22:43:55.410Z,82.02
2023-03-08T22:46:26.426Z,81.75
2023-03-08T22:48:56.536Z,82.33
2023-03-08T22:51:27.692Z,81.85
2023-03-08T22:53:56.241Z,82.53
2023-03-08T22:56:29.554Z,82.35
2023-03-08T22:58:58.288Z,82.59
2023-03-08T23:01:27.983Z,82.88
2023-03-08T23:03:58.024Z,82.68
2023-03-08T23:06:30.295Z,84.19
2023-03-08T23:09:06.269Z,83.43
2023-03-08T23:11:35.476Z,83.45
2023-03-08T23:14:04.095Z,83.36
2023-03-08T23:16:32.969Z,83.46
2023-03-08T23:19:00.980Z,84.04
2023-03-08T23:21:30.499Z,84.69
2023-03-08T23:23:58.468Z,83.73
2023-03-08T23:26:27.502Z,84.50
2023-03-08T23:28:57.771Z,83.86
2023-03-08T23:31:28.509Z,83.44
2023-03-08T23:33:57.123Z,83.52
2023-03-08T23:36:25.980Z,84.59
2023-03-08T23:38:55.210Z,84.55
2023-03-08T23:41:23.574Z,84.41
2023-03-08T23:43:59.476Z,84.33
2023-03-08T23:46:28.722Z,83.77
2023-03-08T23:48:58.129Z,83.51
2023-03-08T23:51:28.605Z,83.70
2023-03-08T23:53:59.567Z,83.61
2023-03-08T23:56:37.778Z,83.20
2023-03-08T23:59:21.148Z,83.86
